Terminal Aerodrome Forecast
Issued by NWS Wilmington, NC

Home | Current Version | Previous Version | Text Only | Print | Product List | Glossary On
Versions: 1 2 3 4 5 6 7 8 9 10 11 12 13 14 15 16 17 18 19
423
FTUS42 KILM 261853 AAA
TAFMYR
TAF AMD
KMYR 261853Z 2619/2718 14012KT P6SM SCT070
     FM270100 20009KT P6SM SKC
     FM271500 21012G19KT P6SM SCT250=

USA.gov is the U.S. government's official web portal to all federal, state and local government web resources and services.